Time;durP1;ratioP1;P1;durP2;ratioP2;P2;SDS_P1;SDS_P2;PMS_P1;PMS_P2;Temp;Humidity;BMP_temperature;BMP_pressure;BME280_temperature;BME280_humidity;BME280_pressure;Samples;Min_cycle;Max_cycle;Signal;HPM_P1;HPM_P2
2022/06/19 00:01:04;;;;;;;12.48;3.45;;;22.00;99.90;;;21.57;100.00;96916.31;5017590;28;20554;-70
2022/06/19 00:03:41;;;;;;;18.73;4.07;;;21.90;99.90;;;21.40;100.00;96905.59;5019299;28;20590;-69
2022/06/19 00:06:09;;;;;;;12.95;3.53;;;22.00;99.90;;;21.59;100.00;96898.50;5017833;28;20390;-69
2022/06/19 00:08:37;;;;;;;14.10;3.72;;;22.10;99.90;;;21.42;100.00;96906.28;5018747;28;20105;-70
2022/06/19 00:11:07;;;;;;;12.80;3.60;;;22.00;99.90;;;21.38;100.00;96896.94;5017274;28;20134;-70
2022/06/19 00:13:34;;;;;;;11.63;3.67;;;22.00;99.90;;;21.52;100.00;96893.00;5016004;28;20080;-69
2022/06/19 00:16:02;;;;;;;12.82;3.70;;;21.90;99.90;;;21.27;100.00;96895.34;5015799;28;20133;-69
2022/06/19 00:18:29;;;;;;;11.10;3.53;;;21.80;99.90;;;21.23;100.00;96888.72;5017550;28;20072;-69
2022/06/19 00:20:56;;;;;;;13.98;2.83;;;21.70;99.90;;;21.16;100.00;96890.28;5015603;28;20081;-70
2022/06/19 00:23:23;;;;;;;9.75;3.17;;;21.70;99.90;;;21.48;100.00;96875.78;5015127;28;20136;-70
2022/06/19 00:25:50;;;;;;;12.32;3.35;;;21.80;99.90;;;21.62;100.00;96882.34;5010897;28;20495;-70
2022/06/19 00:28:17;;;;;;;16.27;3.22;;;21.80;99.90;;;21.69;100.00;96878.97;5016570;28;20053;-70
2022/06/19 00:30:44;;;;;;;14.27;2.80;;;21.90;99.90;;;21.84;100.00;96873.13;5016013;28;20128;-70
2022/06/19 00:33:11;;;;;;;13.38;3.10;;;22.00;99.90;;;21.84;100.00;96883.69;5015947;28;20572;-70
2022/06/19 00:35:38;;;;;;;20.52;3.13;;;22.20;99.90;;;22.12;100.00;96881.75;5018275;28;20171;-70
2022/06/19 00:38:06;;;;;;;14.35;2.88;;;22.30;99.90;;;22.21;100.00;96877.34;5003232;28;20049;-70
2022/06/19 00:40:33;;;;;;;17.38;3.58;;;22.40;99.90;;;22.34;100.00;96867.22;5019120;28;20044;-70
2022/06/19 00:43:00;;;;;;;12.23;2.83;;;22.50;99.90;;;22.41;100.00;96862.97;5021363;28;20141;-70
2022/06/19 00:45:40;;;;;;;20.45;3.53;;;22.60;99.90;;;22.72;100.00;96859.81;5021078;28;20048;-70
2022/06/19 00:48:22;;;;;;;19.25;3.45;;;22.80;99.30;;;23.33;100.00;96858.72;5018269;28;20060;-69
2022/06/19 00:50:52;;;;;;;22.58;3.60;;;23.10;97.70;;;23.84;100.00;96855.16;5019851;28;20049;-70
2022/06/19 00:53:41;;;;;;;23.60;4.07;;;23.60;96.50;;;23.95;100.00;96854.81;5021017;28;20141;-70
2022/06/19 00:56:17;;;;;;;19.50;2.95;;;23.90;95.70;;;23.96;100.00;96854.63;5036586;28;20670;-70
2022/06/19 00:58:47;;;;;;;31.40;3.90;;;24.10;95.40;;;24.08;100.00;96856.94;5018663;28;20140;-71
2022/06/19 01:01:18;;;;;;;23.63;3.95;;;24.20;94.80;;;24.23;100.00;96857.91;5016826;28;20147;-70
2022/06/19 01:04:22;;;;;;;21.38;4.55;;;24.30;94.20;;;24.31;100.00;96854.41;5020038;28;20052;-71
2022/06/19 01:06:49;;;;;;;20.73;3.58;;;24.40;94.00;;;24.40;100.00;96854.22;5020033;28;20053;-69
2022/06/19 01:09:17;;;;;;;26.73;4.22;;;24.60;93.60;;;24.58;100.00;96847.91;5021405;28;20041;-71
2022/06/19 01:11:45;;;;;;;15.93;3.47;;;24.60;93.10;;;24.86;100.00;96847.44;5017264;28;20076;-70
2022/06/19 01:14:18;;;;;;;17.05;3.10;;;24.80;92.70;;;25.10;100.00;96854.47;4999099;28;20160;-71
2022/06/19 01:16:46;;;;;;;31.92;4.68;;;25.10;92.20;;;25.18;100.00;96844.69;5017032;28;20069;-71
2022/06/19 01:19:24;;;;;;;20.77;3.50;;;25.30;91.80;;;25.12;100.00;96845.34;5020683;28;20046;-70
2022/06/19 01:21:58;;;;;;;24.02;3.70;;;25.30;91.50;;;25.19;100.00;96851.63;5018046;28;20146;-70
2022/06/19 01:25:02;;;;;;;20.58;3.67;;;25.40;91.40;;;25.03;100.00;96841.88;5018822;28;20182;-70
2022/06/19 01:30:20;;;;;;;25.23;3.58;;;25.40;91.00;;;25.33;100.00;96859.84;5019941;28;20128;-70
2022/06/19 01:32:50;;;;;;;21.27;3.70;;;25.60;91.00;;;25.36;100.00;96856.84;5021039;28;20169;-70
2022/06/19 01:35:21;;;;;;;21.50;3.67;;;25.60;90.80;;;25.29;100.00;96840.78;5020406;28;20089;-70
2022/06/19 01:37:49;;;;;;;20.42;3.28;;;25.60;90.80;;;25.32;100.00;96831.66;5017639;28;20069;-70
2022/06/19 01:40:27;;;;;;;18.60;3.08;;;25.60;90.80;;;25.33;100.00;96828.78;5020030;28;20223;-70
2022/06/19 01:42:54;;;;;;;20.60;3.40;;;25.60;90.70;;;25.39;100.00;96833.41;5018932;28;20152;-70
2022/06/19 01:45:22;;;;;;;14.88;2.88;;;25.60;90.60;;;25.36;100.00;96841.75;5016384;28;20152;-70
2022/06/19 01:47:50;;;;;;;19.13;3.75;;;25.60;90.50;;;25.30;100.00;96837.13;5025978;28;20493;-70
2022/06/19 01:50:24;;;;;;;20.27;3.13;;;25.60;90.60;;;25.35;100.00;96831.28;5028279;28;20069;-70
2022/06/19 01:53:00;;;;;;;19.77;3.00;;;25.50;90.50;;;25.29;100.00;96830.16;5020415;28;20518;-70
2022/06/19 01:55:28;;;;;;;18.65;3.72;;;25.60;90.60;;;25.32;100.00;96819.19;5022189;28;20081;-71
2022/06/19 01:57:57;;;;;;;19.35;3.65;;;25.50;90.40;;;25.31;100.00;96809.56;5026778;28;20365;-70
2022/06/19 02:00:29;;;;;;;18.35;3.28;;;25.60;90.60;;;25.34;100.00;96813.69;5028139;28;20131;-70
2022/06/19 02:03:12;;;;;;;16.50;3.83;;;25.50;90.50;;;25.14;100.00;96803.50;5022298;28;20442;-70
2022/06/19 02:05:40;;;;;;;24.17;4.03;;;25.50;90.60;;;25.32;100.00;96813.06;5022767;28;20132;-69
2022/06/19 02:08:09;;;;;;;17.05;3.28;;;25.50;90.50;;;25.23;100.00;96821.06;5020694;28;20041;-70
2022/06/19 02:10:40;;;;;;;17.55;3.25;;;25.50;90.60;;;25.22;100.00;96816.75;5026074;28;20079;-70
2022/06/19 02:13:10;;;;;;;16.65;3.70;;;25.50;90.60;;;25.18;100.00;96817.22;5021410;28;20046;-71
2022/06/19 02:15:38;;;;;;;17.45;3.78;;;25.40;90.60;;;25.13;100.00;96817.75;5026212;28;20048;-70
2022/06/19 02:18:14;;;;;;;41.72;4.07;;;25.40;90.80;;;25.13;100.00;96817.75;5004261;28;20088;-71
2022/06/19 02:20:42;;;;;;;19.85;3.65;;;25.50;90.90;;;25.21;100.00;96816.94;5025443;28;20095;-69
2022/06/19 02:23:09;;;;;;;16.60;3.78;;;25.40;90.80;;;25.37;100.00;96816.00;5023597;28;20480;-70
2022/06/19 02:25:40;;;;;;;14.10;3.88;;;25.50;90.90;;;25.31;100.00;96816.69;5023577;28;20152;-70
2022/06/19 02:28:09;;;;;;;16.30;4.30;;;25.60;90.90;;;25.34;100.00;96827.81;5021933;28;20466;-71
2022/06/19 02:30:36;;;;;;;13.43;3.53;;;25.60;90.90;;;25.38;100.00;96830.91;5038215;28;20140;-70
2022/06/19 02:33:06;;;;;;;14.88;4.53;;;25.60;90.90;;;25.35;100.00;96825.97;5027855;28;20056;-70
2022/06/19 02:35:33;;;;;;;20.48;4.78;;;25.60;90.90;;;25.58;100.00;96818.00;5023399;28;20128;-70
2022/06/19 02:38:06;;;;;;;15.82;4.03;;;25.70;90.80;;;25.58;100.00;96815.34;5018003;28;20157;-70
2022/06/19 02:41:13;;;;;;;16.27;4.82;;;25.80;90.80;;;25.62;100.00;96808.66;5022378;28;20045;-71
2022/06/19 02:43:40;;;;;;;24.50;4.55;;;25.80;90.90;;;25.59;100.00;96806.34;5019443;28;20140;-70
2022/06/19 02:46:07;;;;;;;15.18;3.85;;;25.90;91.10;;;25.59;100.00;96809.84;5020186;28;20135;-70
2022/06/19 02:48:34;;;;;;;10.75;3.40;;;25.80;91.00;;;25.59;100.00;96803.69;5019511;28;20068;-70
2022/06/19 02:51:04;;;;;;;16.52;4.53;;;25.80;91.20;;;25.52;100.00;96795.63;5041245;28;20093;-70
2022/06/19 02:53:32;;;;;;;16.73;4.22;;;25.90;91.30;;;25.50;100.00;96796.78;5038252;28;20812;-70
2022/06/19 02:55:59;;;;;;;16.17;4.22;;;25.80;91.30;;;25.48;100.00;96796.13;5023601;28;20142;-71
2022/06/19 02:58:26;;;;;;;17.90;4.60;;;25.80;91.30;;;25.50;100.00;96797.63;5021837;28;20041;-71
2022/06/19 03:00:53;;;;;;;15.75;4.05;;;25.70;91.40;;;25.44;100.00;96787.72;5023726;28;20100;-70
2022/06/19 03:03:35;;;;;;;15.73;4.47;;;25.70;91.50;;;25.42;100.00;96792.38;5021371;28;20480;-71
2022/06/19 03:06:05;;;;;;;14.07;3.38;;;25.70;91.60;;;25.24;100.00;96784.69;5017782;28;20046;-70
2022/06/19 03:08:32;;;;;;;12.13;3.80;;;25.60;91.70;;;25.32;100.00;96789.16;5020422;28;20045;-70
2022/06/19 03:11:04;;;;;;;15.65;3.72;;;25.60;91.60;;;25.25;100.00;96787.19;5023185;28;20530;-70
2022/06/19 03:13:31;;;;;;;12.57;4.35;;;25.60;91.80;;;25.16;100.00;96787.41;5020579;28;20496;-70
2022/06/19 03:16:06;;;;;;;14.27;4.13;;;25.60;92.00;;;25.27;100.00;96786.19;5021080;28;20566;-70
2022/06/19 03:18:35;;;;;;;15.07;4.53;;;25.50;92.20;;;25.33;100.00;96782.81;5022735;28;20097;-70
2022/06/19 03:21:02;;;;;;;12.23;4.35;;;25.50;92.30;;;25.37;100.00;96779.63;5023263;28;20496;-70
2022/06/19 03:23:29;;;;;;;10.43;3.83;;;25.60;92.20;;;25.36;100.00;96774.47;5021332;28;20124;-70
2022/06/19 03:25:56;;;;;;;12.30;3.70;;;25.60;92.30;;;25.37;100.00;96790.25;5023032;28;20119;-70
2022/06/19 03:28:23;;;;;;;18.13;3.83;;;25.60;92.40;;;25.29;100.00;96786.81;5024040;28;20045;-70
2022/06/19 03:30:53;;;;;;;12.23;4.05;;;25.60;92.50;;;25.28;100.00;96787.84;5029674;28;20122;-70
2022/06/19 03:33:21;;;;;;;16.27;4.35;;;25.60;92.70;;;25.15;100.00;96793.69;5016510;28;20068;-70
2022/06/19 03:35:48;;;;;;;19.00;4.88;;;25.50;92.90;;;25.20;100.00;96794.03;5020921;28;20041;-70
2022/06/19 03:38:15;;;;;;;9.80;4.05;;;25.60;93.10;;;25.20;100.00;96786.06;5022962;28;20103;-70
2022/06/19 03:40:42;;;;;;;13.07;4.70;;;25.50;93.00;;;25.22;100.00;96782.22;5023397;28;20128;-70
2022/06/19 03:43:10;;;;;;;16.92;4.90;;;25.50;93.20;;;25.15;100.00;96783.06;5024584;28;20095;-71
2022/06/19 03:45:37;;;;;;;18.95;4.40;;;25.50;93.30;;;25.10;100.00;96788.91;5021926;28;20137;-70
2022/06/19 03:48:05;;;;;;;13.63;4.65;;;25.50;93.40;;;25.03;100.00;96794.09;5019476;28;20137;-70
2022/06/19 03:50:32;;;;;;;10.30;4.35;;;25.40;93.50;;;25.03;100.00;96801.25;5025587;28;20044;-70
2022/06/19 03:52:59;;;;;;;14.73;4.43;;;25.40;93.60;;;25.06;100.00;96806.19;5018500;28;20148;-71
2022/06/19 03:55:26;;;;;;;14.40;4.90;;;25.40;93.80;;;24.97;100.00;96816.03;5021803;28;20049;-70
2022/06/19 03:57:53;;;;;;;13.95;5.55;;;25.40;94.00;;;24.97;100.00;96807.25;5025632;28;20053;-70
2022/06/19 04:00:20;;;;;;;14.85;5.07;;;25.40;94.30;;;24.97;100.00;96801.94;5023686;28;20132;-71
2022/06/19 04:02:48;;;;;;;15.90;4.70;;;25.40;94.30;;;25.01;100.00;96812.03;5020671;28;20128;-70
2022/06/19 04:05:15;;;;;;;10.43;4.80;;;25.40;94.50;;;24.97;100.00;96805.41;5021927;28;20118;-71
2022/06/19 04:07:47;;;;;;;14.70;5.10;;;25.40;94.60;;;24.97;100.00;96813.38;5022546;28;20192;-70
2022/06/19 04:10:18;;;;;;;10.18;4.80;;;25.40;94.70;;;24.96;100.00;96821.53;5022832;28;20159;-70
2022/06/19 04:12:52;;;;;;;12.35;4.97;;;25.40;94.90;;;24.96;100.00;96821.53;5023796;28;20048;-71
2022/06/19 04:15:19;;;;;;;12.43;5.22;;;25.30;94.80;;;25.03;100.00;96818.00;5030665;28;20650;-70
2022/06/19 04:17:46;;;;;;;12.27;4.95;;;25.30;95.10;;;24.93;100.00;96812.09;5033618;28;20132;-70
2022/06/19 04:20:13;;;;;;;11.82;5.03;;;25.30;95.20;;;24.91;100.00;96810.63;5028517;28;20480;-69
2022/06/19 04:22:40;;;;;;;12.38;5.30;;;25.30;95.20;;;24.91;100.00;96808.78;5025047;28;20525;-71
2022/06/19 04:25:13;;;;;;;12.82;4.90;;;25.40;95.40;;;24.94;100.00;96815.56;5028026;28;20460;-70
2022/06/19 04:27:43;;;;;;;22.20;6.00;;;25.40;95.50;;;24.91;100.00;96811.44;5030717;28;20077;-70
2022/06/19 04:30:12;;;;;;;11.05;5.30;;;25.40;95.50;;;24.95;100.00;96809.25;5024177;28;20038;-70
2022/06/19 04:32:40;;;;;;;13.73;4.60;;;25.40;95.80;;;24.92;100.00;96812.25;5026711;28;20075;-70
2022/06/19 04:35:08;;;;;;;14.05;5.15;;;25.40;95.80;;;24.83;100.00;96806.97;5024129;28;20128;-70
2022/06/19 04:37:35;;;;;;;12.50;5.28;;;25.40;95.90;;;24.86;100.00;96803.19;5025190;28;20143;-70
2022/06/19 04:40:03;;;;;;;10.68;5.10;;;25.40;96.00;;;24.88;100.00;96809.09;5028158;28;20068;-69
2022/06/19 04:42:30;;;;;;;10.02;5.13;;;25.40;96.10;;;24.90;100.00;96807.09;5029206;28;20123;-69
2022/06/19 04:44:57;;;;;;;8.68;4.97;;;25.40;96.20;;;24.80;100.00;96812.66;5026809;28;20172;-70
2022/06/19 04:47:24;;;;;;;11.27;5.45;;;25.40;96.30;;;24.81;100.00;96809.00;5025802;28;20583;-70
2022/06/19 04:49:51;;;;;;;10.40;5.22;;;25.40;96.40;;;24.85;100.00;96804.16;5026780;28;20130;-70
2022/06/19 04:52:18;;;;;;;10.35;5.75;;;25.50;96.50;;;24.90;100.00;96803.63;5024096;28;20159;-69
2022/06/19 04:54:46;;;;;;;10.82;5.20;;;25.50;96.50;;;25.00;100.00;96810.38;5026122;28;20091;-70
2022/06/19 04:57:13;;;;;;;11.38;4.72;;;25.50;96.50;;;24.91;100.00;96803.47;5027222;28;20446;-69
2022/06/19 04:59:41;;;;;;;14.60;5.75;;;25.50;96.60;;;24.88;100.00;96803.81;5025718;28;20049;-70
2022/06/19 05:02:12;;;;;;;10.82;5.13;;;25.50;96.70;;;24.99;100.00;96795.44;5025805;28;20136;-69
2022/06/19 05:04:39;;;;;;;13.73;5.65;;;25.40;96.70;;;24.93;100.00;96808.59;5024859;28;20050;-69
2022/06/19 05:07:07;;;;;;;10.63;5.57;;;25.50;96.70;;;24.95;100.00;96809.25;5024007;28;20108;-69
2022/06/19 05:09:34;;;;;;;9.98;5.60;;;25.50;96.60;;;24.91;100.00;96805.31;5026726;28;20069;-69
2022/06/19 05:12:01;;;;;;;13.10;5.07;;;25.60;96.70;;;25.05;100.00;96816.00;5024084;28;20132;-68
2022/06/19 05:14:28;;;;;;;11.43;4.93;;;25.50;96.60;;;24.91;100.00;96814.09;5028031;28;20084;-69
2022/06/19 05:16:55;;;;;;;13.90;5.80;;;25.60;96.50;;;24.96;100.00;96810.91;5022644;28;20500;-69
2022/06/19 05:19:22;;;;;;;9.60;4.68;;;25.60;96.80;;;25.04;100.00;96819.66;5026277;28;20073;-69
2022/06/19 05:21:49;;;;;;;10.95;4.70;;;25.60;96.30;;;24.98;100.00;96822.19;5025538;28;20047;-69
2022/06/19 05:24:16;;;;;;;9.80;4.82;;;25.60;96.20;;;25.01;100.00;96816.53;5024416;28;20050;-69
2022/06/19 05:26:48;;;;;;;9.63;4.93;;;25.70;96.00;;;24.99;100.00;96835.25;5026518;28;20080;-70
2022/06/19 05:29:14;;;;;;;12.38;4.57;;;25.70;95.90;;;25.21;100.00;96814.28;5025795;28;20128;-69
2022/06/19 05:31:42;;;;;;;10.43;4.97;;;25.70;95.70;;;25.26;100.00;96819.88;5027574;28;20100;-70
2022/06/19 05:34:09;;;;;;;10.38;4.82;;;25.70;95.30;;;25.25;100.00;96815.59;5023280;28;20179;-69
2022/06/19 05:36:43;;;;;;;13.13;4.88;;;25.80;95.40;;;25.39;100.00;96820.13;5025340;28;20127;-69
2022/06/19 05:39:10;;;;;;;9.27;4.03;;;25.90;95.40;;;25.36;100.00;96823.16;5025670;28;20095;-70
2022/06/19 05:41:39;;;;;;;17.90;4.97;;;26.00;94.60;;;25.49;100.00;96811.91;5021796;28;20323;-69
2022/06/19 05:44:07;;;;;;;9.52;4.05;;;26.10;94.80;;;25.64;100.00;96804.00;5020978;28;20096;-70
2022/06/19 05:46:35;;;;;;;9.07;4.25;;;26.20;94.60;;;25.59;100.00;96816.97;5024248;28;20042;-71
2022/06/19 05:49:01;;;;;;;10.35;3.80;;;26.30;93.90;;;25.69;100.00;96809.59;5026348;28;20057;-70
2022/06/19 05:51:30;;;;;;;8.70;4.38;;;26.30;93.80;;;25.73;100.00;96794.09;5021792;28;20058;-69
2022/06/19 05:53:58;;;;;;;10.18;3.90;;;26.40;93.20;;;25.82;100.00;96799.19;5023943;28;20053;-70
2022/06/19 05:56:27;;;;;;;11.15;3.92;;;26.40;93.30;;;25.95;100.00;96806.56;5021720;28;20054;-70
2022/06/19 05:58:54;;;;;;;8.90;3.70;;;26.50;93.30;;;25.83;100.00;96813.31;5016022;28;20045;-70
2022/06/19 06:01:23;;;;;;;10.75;3.08;;;26.60;92.90;;;25.93;100.00;96803.25;5013039;28;20125;-71
2022/06/19 06:03:50;;;;;;;11.98;3.70;;;26.60;92.70;;;25.94;100.00;96812.06;5013893;28;20128;-70
2022/06/19 06:06:22;;;;;;;9.52;3.63;;;26.70;92.80;;;26.05;100.00;96825.75;5015762;28;21502;-68
2022/06/19 06:08:50;;;;;;;10.13;3.70;;;26.70;92.80;;;26.15;100.00;96811.38;5009019;28;20140;-70
2022/06/19 06:11:18;;;;;;;9.80;3.83;;;26.80;92.70;;;26.18;100.00;96809.16;5017190;28;20131;-70
2022/06/19 06:13:45;;;;;;;9.55;3.75;;;26.80;92.60;;;26.14;100.00;96812.34;5011646;28;20052;-70
2022/06/19 06:16:21;;;;;;;7.93;3.25;;;26.90;92.70;;;26.33;100.00;96803.84;5006746;28;20042;-70
2022/06/19 06:18:49;;;;;;;7.53;3.40;;;27.00;92.50;;;26.26;100.00;96818.91;5012568;28;20064;-70
2022/06/19 06:21:20;;;;;;;7.15;3.13;;;27.00;92.40;;;26.37;100.00;96820.28;5007967;28;20139;-69
2022/06/19 06:23:48;;;;;;;9.15;3.50;;;27.10;92.10;;;26.19;100.00;96825.97;5015156;28;20053;-70
2022/06/19 06:26:29;;;;;;;14.40;3.63;;;27.10;92.10;;;26.21;100.00;96839.91;5014012;28;20080;-70
2022/06/19 06:28:59;;;;;;;9.38;3.72;;;27.10;92.00;;;26.22;100.00;96818.41;5011429;28;20140;-69
2022/06/19 06:31:26;;;;;;;6.80;3.38;;;27.20;92.00;;;26.25;100.00;96804.78;5011080;28;20140;-69
2022/06/19 06:33:57;;;;;;;12.68;4.03;;;27.10;91.80;;;26.52;100.00;96805.13;5012712;28;20054;-69
2022/06/19 06:36:26;;;;;;;9.35;3.75;;;27.20;92.20;;;26.40;100.00;96807.44;5006895;28;20054;-69
2022/06/19 06:38:53;;;;;;;8.00;3.15;;;27.20;91.80;;;26.37;100.00;96810.47;5015305;28;20090;-70
2022/06/19 06:41:20;;;;;;;9.98;3.60;;;27.30;91.70;;;26.37;100.00;96837.06;5011779;28;20136;-70
2022/06/19 06:43:47;;;;;;;17.83;4.15;;;27.30;91.70;;;26.47;100.00;96802.19;5010094;28;20467;-70
2022/06/19 06:46:22;;;;;;;13.45;4.10;;;27.30;91.70;;;26.60;100.00;96823.69;5011860;28;20080;-70
2022/06/19 06:48:52;;;;;;;42.25;3.72;;;27.30;91.70;;;26.46;100.00;96812.03;5008513;28;20050;-70
2022/06/19 06:51:26;;;;;;;8.50;3.70;;;27.30;91.40;;;26.63;100.00;96823.31;5013560;28;20144;-68
2022/06/19 06:53:54;;;;;;;11.43;3.50;;;27.40;91.60;;;26.84;100.00;96817.22;5011243;28;20504;-69
2022/06/19 06:56:22;;;;;;;12.93;3.85;;;27.50;91.70;;;26.90;100.00;96821.81;5010040;28;20476;-69
2022/06/19 06:58:49;;;;;;;10.25;4.13;;;27.60;91.70;;;26.75;100.00;96834.31;5013237;28;20137;-69
2022/06/19 07:01:22;;;;;;;10.70;3.40;;;27.70;91.30;;;26.88;100.00;96817.69;5011506;28;20076;-69
2022/06/19 07:03:54;;;;;;;7.30;3.22;;;27.80;91.30;;;27.07;100.00;96833.09;5008557;28;20050;-70
2022/06/19 07:06:31;;;;;;;13.50;3.70;;;27.80;91.30;;;26.97;100.00;96810.41;5012146;28;20324;-70
2022/06/19 07:08:58;;;;;;;9.95;4.00;;;27.80;91.30;;;27.01;100.00;96827.69;5017512;28;20172;-69
2022/06/19 07:11:32;;;;;;;7.63;3.55;;;27.90;91.30;;;26.95;100.00;96823.09;5033502;28;20174;-69
2022/06/19 07:13:59;;;;;;;8.70;3.47;;;27.90;91.30;;;26.88;100.00;96820.34;5020329;28;20046;-69
2022/06/19 07:16:26;;;;;;;11.23;3.53;;;27.90;91.00;;;27.11;100.00;96821.03;5013793;28;20134;-69
2022/06/19 07:18:54;;;;;;;10.50;3.75;;;27.90;91.20;;;27.19;100.00;96824.59;5015998;28;20058;-69
2022/06/19 07:21:21;;;;;;;13.40;3.58;;;27.90;91.50;;;27.10;100.00;96831.88;5019971;28;20732;-69
2022/06/19 07:23:48;;;;;;;8.73;3.67;;;27.90;91.10;;;27.15;100.00;96857.97;5012604;28;20053;-69
2022/06/19 07:26:19;;;;;;;11.40;3.55;;;27.90;91.10;;;27.07;100.00;96829.56;5018773;28;20065;-69
2022/06/19 07:28:46;;;;;;;10.77;3.97;;;28.00;91.00;;;27.11;100.00;96818.34;5017916;28;20049;-69
2022/06/19 07:31:22;;;;;;;10.35;3.65;;;28.00;91.00;;;27.38;100.00;96837.34;5015001;28;20049;-69
2022/06/19 07:33:49;;;;;;;8.27;4.03;;;28.10;91.00;;;27.30;100.00;96826.78;5018279;28;20054;-69
2022/06/19 07:36:20;;;;;;;9.38;3.60;;;28.10;90.70;;;27.29;100.00;96835.81;5011807;28;20045;-69
2022/06/19 07:38:47;;;;;;;11.52;3.72;;;28.10;91.00;;;27.34;100.00;96806.75;5014019;28;20056;-70
2022/06/19 07:41:15;;;;;;;9.15;3.40;;;28.20;90.90;;;27.34;100.00;96822.72;5008861;28;20055;-70
2022/06/19 07:43:43;;;;;;;9.18;4.10;;;28.20;90.80;;;27.12;100.00;96836.00;5017857;28;20049;-69
2022/06/19 07:46:11;;;;;;;11.20;4.05;;;28.10;90.80;;;27.38;100.00;96826.66;5007373;28;20064;-69
2022/06/19 07:51:27;;;;;;;10.65;4.20;;;28.10;91.10;;;27.57;100.00;96827.06;5013702;28;20527;-62
2022/06/19 07:53:59;;;;;;;6.82;3.83;;;28.20;91.10;;;27.29;100.00;96849.13;5012603;28;20220;-63
2022/06/19 07:56:26;;;;;;;9.75;4.10;;;28.30;91.00;;;27.62;100.00;96824.63;5011932;28;20060;-63
2022/06/19 07:58:53;;;;;;;12.65;3.35;;;28.20;91.00;;;27.41;100.00;96818.28;5009506;28;20516;-62
2022/06/19 08:01:21;;;;;;;9.43;3.90;;;28.20;90.90;;;27.70;100.00;96824.50;5016303;28;20049;-63
2022/06/19 08:03:48;;;;;;;12.02;4.53;;;28.30;91.20;;;27.38;100.00;96844.50;4996391;28;20088;-64
2022/06/19 08:06:18;;;;;;;11.10;3.75;;;28.30;90.90;;;27.71;100.00;96816.34;5013786;28;20060;-63
2022/06/19 08:08:47;;;;;;;12.23;3.85;;;28.30;91.20;;;28.01;100.00;96834.84;5012392;28;20108;-62
2022/06/19 08:11:14;;;;;;;11.45;3.42;;;28.50;91.30;;;28.24;100.00;96844.47;5020628;28;20045;-63
2022/06/19 08:13:41;;;;;;;7.45;2.95;;;28.60;91.40;;;28.07;100.00;96835.91;5014882;28;20051;-63
2022/06/19 08:16:10;;;;;;;12.00;4.07;;;28.70;91.20;;;27.87;100.00;96830.41;5010570;28;20140;-63
2022/06/19 08:18:39;;;;;;;11.85;4.03;;;28.80;90.80;;;27.80;100.00;96846.31;5015082;28;20045;-63
2022/06/19 08:21:06;;;;;;;12.80;3.83;;;28.90;90.50;;;28.15;100.00;96844.59;5017022;28;20064;-63
2022/06/19 08:23:33;;;;;;;9.93;3.58;;;28.90;90.50;;;28.31;100.00;96837.31;5015917;28;20088;-63
2022/06/19 08:26:00;;;;;;;6.47;3.30;;;29.00;90.70;;;28.45;100.00;96828.38;5016282;28;20057;-63
2022/06/19 08:30:55;;;;;;;8.73;3.75;;;29.00;90.40;;;28.47;100.00;96831.69;5018804;28;20141;-64
2022/06/19 08:33:22;;;;;;;7.82;3.60;;;29.10;90.40;;;27.97;100.00;96854.94;5012786;28;20153;-63
2022/06/19 08:35:57;;;;;;;11.65;3.97;;;29.00;90.00;;;28.36;100.00;96821.53;5010424;28;20060;-64
2022/06/19 08:38:30;;;;;;;12.15;4.88;;;29.00;90.20;;;28.63;100.00;96837.75;5016901;28;20142;-63
2022/06/19 08:41:23;;;;;;;10.82;3.97;;;29.20;90.20;;;28.44;100.00;96828.56;5001333;28;20139;-63
2022/06/19 08:44:19;;;;;;;7.28;3.58;;;29.20;90.10;;;28.69;100.00;96837.78;5012436;28;20192;-63
2022/06/19 08:47:22;;;;;;;10.10;3.60;;;29.30;90.20;;;29.07;100.00;96833.81;5012988;28;20060;-63
2022/06/19 08:49:59;;;;;;;15.60;4.07;;;;;;;29.23;100.00;96835.34;5011726;28;20440;-63
2022/06/19 08:52:45;;;;;;;13.57;4.35;;;29.90;89.30;;;28.72;100.00;96858.75;5015747;28;20132;-63
2022/06/19 08:55:48;;;;;;;9.13;4.00;;;29.90;88.60;;;28.68;100.00;96860.16;5030913;28;20615;-63
2022/06/19 08:58:48;;;;;;;15.00;4.22;;;30.10;87.60;;;28.82;100.00;96865.56;5017663;28;20118;-63
2022/06/19 09:01:46;;;;;;;15.50;4.13;;;30.20;87.00;;;28.99;100.00;96864.22;5025180;28;20081;-62
2022/06/19 09:07:55;;;;;;;11.15;4.43;;;30.20;86.70;;;28.95;100.00;96869.13;5021272;28;20539;-63
2022/06/19 09:10:46;;;;;;;14.02;3.83;;;30.30;86.20;;;29.32;100.00;96861.66;5027028;28;20110;-63
2022/06/19 09:13:44;;;;;;;13.30;3.45;;;30.30;85.80;;;29.38;100.00;96860.88;5029046;28;20140;-64
2022/06/19 09:16:33;;;;;;;16.73;3.95;;;30.50;85.80;;;29.35;100.00;96871.97;5021383;28;20567;-63
2022/06/19 09:19:22;;;;;;;11.15;3.60;;;30.70;85.10;;;30.38;100.00;96860.16;5023038;28;20050;-63
2022/06/19 09:22:59;;;;;;;8.68;3.15;;;30.70;86.20;;;30.39;100.00;96859.94;5025763;28;20107;-63
2022/06/19 09:26:07;;;;;;;9.75;3.92;;;30.80;86.10;;;30.61;100.00;96865.88;5064954;28;20093;-64
2022/06/19 09:29:14;;;;;;;7.53;3.53;;;31.10;85.20;;;30.80;100.00;96880.25;5031371;28;20122;-63
2022/06/19 09:31:54;;;;;;;18.85;3.50;;;31.40;84.70;;;30.24;100.00;96883.41;5025899;28;20076;-63
2022/06/19 09:34:55;;;;;;;11.77;3.90;;;31.50;83.70;;;30.35;100.00;96873.97;5022123;28;20136;-63
2022/06/19 09:37:36;;;;;;;10.63;3.88;;;31.60;83.80;;;30.38;100.00;96877.06;5023540;28;20049;-62
2022/06/19 09:40:15;;;;;;;13.63;3.58;;;31.70;83.10;;;31.27;100.00;96864.03;5021073;28;20073;-63
2022/06/19 09:42:49;;;;;;;16.90;3.75;;;31.80;83.30;;;30.92;100.00;96868.91;5013642;28;20080;-62
2022/06/19 09:45:23;;;;;;;11.63;3.40;;;32.00;82.70;;;31.36;100.00;96873.47;5028299;28;20148;-63
2022/06/19 09:48:37;;;;;;;12.32;3.78;;;32.10;82.50;;;32.14;100.00;96871.53;5026811;28;20140;-63
2022/06/19 09:51:26;;;;;;;10.68;3.30;;;32.10;82.80;;;30.75;100.00;96879.25;5022117;28;20112;-63
2022/06/19 09:54:08;;;;;;;8.88;3.50;;;32.10;81.90;;;31.11;100.00;96876.06;5023700;28;20128;-63
2022/06/19 09:56:42;;;;;;;11.57;3.72;;;32.10;82.00;;;32.45;100.00;96865.25;5025125;28;20575;-63
2022/06/19 09:59:40;;;;;;;17.55;3.55;;;32.20;83.10;;;31.93;100.00;96865.47;5024540;28;20103;-63
2022/06/19 10:02:32;;;;;;;8.15;3.25;;;32.50;81.80;;;31.51;100.00;96880.44;5017651;28;20468;-68
2022/06/19 10:05:32;;;;;;;11.85;3.40;;;32.50;81.70;;;30.74;100.00;96889.13;5018974;28;20053;-69
2022/06/19 10:08:13;;;;;;;10.98;3.67;;;32.40;80.80;;;32.71;98.19;96873.09;5016574;28;20131;-69
2022/06/19 10:10:52;;;;;;;9.68;3.38;;;32.30;82.60;;;31.78;100.00;96867.66;5024639;28;20092;-68
2022/06/19 10:13:38;;;;;;;13.35;4.05;;;32.50;81.80;;;31.62;98.99;96882.44;5027148;28;20036;-68
2022/06/19 10:16:51;;;;;;;6.63;3.03;;;32.70;81.40;;;32.98;97.18;96851.28;5036692;28;20115;-69
2022/06/19 10:19:50;;;;;;;10.32;4.40;;;32.90;81.10;;;32.34;99.25;96877.53;5020239;28;20435;-68
2022/06/19 10:22:45;;;;;;;7.47;3.33;;;33.10;80.50;;;32.70;98.82;96860.69;5020212;28;20091;-68
2022/06/19 10:25:55;;;;;;;9.50;3.65;;;33.00;80.90;;;33.05;97.08;96861.97;5024654;28;20148;-69
2022/06/19 10:29:00;;;;;;;5.73;2.83;;;33.30;81.00;;;32.86;98.09;96867.31;5022609;28;20504;-68
2022/06/19 10:32:03;;;;;;;7.70;3.30;;;33.30;80.40;;;34.26;94.64;96869.97;5030320;28;20128;-68
2022/06/19 10:35:21;;;;;;;8.32;3.40;;;33.60;80.60;;;34.73;92.11;96870.81;5025866;28;20049;-70
2022/06/19 10:38:44;;;;;;;14.07;4.15;;;34.10;79.80;;;33.32;93.96;96874.06;5020044;28;20088;-69
2022/06/19 10:44:35;;;;;;;14.68;4.05;;;33.90;78.60;;;32.73;97.93;96859.44;5020427;28;20525;-70
2022/06/19 10:47:16;;;;;;;9.80;3.83;;;33.70;78.70;;;33.60;94.97;96872.66;5011283;28;20057;-69
2022/06/19 10:50:23;;;;;;;13.30;3.83;;;34.00;78.90;;;33.62;93.96;96881.31;5023256;28;20057;-68